フェニックス の空港の天気 - METARとTAF

フェニックス・スカイハーバー国際空港 ( KPHX / PHX ) - アメリカ アリゾナ州フェニックス
飛行場実況気象(Metar)
観測時間05/28 15:51 MST (05/28 22:51 UTC)
風向・風速南南西 6m/s 瞬間風速9m/s
視程10km以上
天気現象
少しの雲 雲底高度 4270m
全天の4割程度の雲 雲底高度 7620m
全天の8割程度の雲 雲底高度 8840m
気温38.3℃
湿度7%
気圧1000.1hPa
METARKPHX 282251Z 21012G18KT 10SM FEW140 SCT250 BKN290 38/M03 A2960 RMK AO2 SLP001 T03831028
過去の天気等 Google飛行場航空写真 Wunderground天気予報

過去48時間のMETAR

飛行場予報(TAF)
発表時間: 5/28 14:06 MST (5/28 21:06 UTC)
予報対象時間: 28日14時 MST ~ 29日17時 MST
風向・風速西 7m/s 瞬間風速 11m/s
視程10km以上
全天の4割程度の雲 雲底高度 7620m
28日22時 MST から
風向・風速西 5m/s
視程10km以上
少しの雲 雲底高度 7620m
29日4時 MST から
風向・風速南南東 4m/s
視程10km以上
少しの雲 雲底高度 7620m
29日8時 MST から
風向・風速西南西 5m/s
視程10km以上
少しの雲 雲底高度 7620m
29日13時 MST から
風向・風速西南西 8m/s 瞬間風速 13m/s
視程10km以上
少しの雲 雲底高度 7620m
KPHX 282106Z 2821/2924 26014G22KT P6SM SCT250
FM290500 26010KT P6SM FEW250
FM291100 16007KT P6SM FEW250
FM291500 24010KT P6SM FEW250
FM292000 25016G26KT P6SM FEW250